Time;durP1;ratioP1;P1;durP2;ratioP2;P2;SDS_P1;SDS_P2;PMS_P1;PMS_P2;Temp;Humidity;BMP_temperature;BMP_pressure;BME280_temperature;BME280_humidity;BME280_pressure;Samples;Min_cycle;Max_cycle;Signal;HPM_P1;HPM_P2
2023/01/17 00:00:05;;;;;;;;;;;5.90;99.90;;;;;;7349545;19;108569;-92
2023/01/17 00:02:32;;;;;;;;;;;5.90;99.90;;;;;;7346783;19;110094;-92
2023/01/17 00:10:29;;;;;;;;;;;5.70;99.90;;;;;;7350910;19;108486;-92
2023/01/17 00:12:58;;;;;;;;;;;5.60;99.90;;;;;;7348977;19;108240;-91
2023/01/17 00:15:26;;;;;;;;;;;5.50;99.90;;;;;;7347029;19;111250;-92
2023/01/17 00:17:53;;;;;;;;;;;5.40;99.90;;;;;;7349481;19;108310;-94
2023/01/17 00:26:02;;;;;;;;;;;5.20;99.90;;;;;;7350638;19;108948;-93
2023/01/17 01:35:51;;;;;;;;;;;5.10;99.90;;;;;;7345223;19;108163;-92
2023/01/17 01:38:19;;;;;;;;;;;5.10;99.90;;;;;;7350484;19;109661;-91
2023/01/17 01:40:53;;;;;;;;;;;5.10;99.90;;;;;;7345786;19;109534;-92
2023/01/17 01:43:40;;;;;;;;;;;5.10;99.90;;;;;;7345312;19;108421;-91
2023/01/17 01:46:08;;;;;;;;;;;5.20;99.90;;;;;;7344148;19;109218;-92
2023/01/17 01:48:38;;;;;;;;;;;5.20;99.90;;;;;;7344062;19;108742;-92
2023/01/17 01:51:07;;;;;;;;;;;5.20;99.90;;;;;;7343143;19;109348;-91
2023/01/17 01:53:36;;;;;;;;;;;5.20;99.90;;;;;;7342565;19;111770;-92
2023/01/17 01:56:04;;;;;;;;;;;5.30;99.90;;;;;;7342626;19;109705;-92
2023/01/17 01:58:33;;;;;;;;;;;5.30;99.90;;;;;;7345503;19;108489;-91
2023/01/17 02:01:00;;;;;;;;;;;5.30;99.90;;;;;;7347226;19;111911;-92
2023/01/17 02:03:29;;;;;;;;;;;5.30;99.90;;;;;;7343125;19;108765;-92
2023/01/17 02:05:59;;;;;;;;;;;5.30;99.90;;;;;;7337637;19;108854;-92
2023/01/17 02:08:26;;;;;;;;;;;5.30;99.90;;;;;;7338811;19;112197;-92
2023/01/17 02:10:54;;;;;;;;;;;5.30;99.90;;;;;;7338743;19;108764;-91
2023/01/17 02:13:21;;;;;;;;;;;5.30;99.90;;;;;;7338299;19;111075;-92
2023/01/17 02:15:48;;;;;;;;;;;5.30;99.90;;;;;;7339773;19;110542;-91
2023/01/17 02:18:30;;;;;;;;;;;5.30;99.90;;;;;;7336591;19;109247;-91
2023/01/17 02:21:17;;;;;;;;;;;5.30;99.90;;;;;;7339616;19;109104;-92
2023/01/17 02:23:50;;;;;;;;;;;5.20;99.90;;;;;;7342642;19;109105;-91
2023/01/17 02:26:20;;;;;;;;;;;5.20;99.90;;;;;;7332502;19;110468;-91
2023/01/17 02:29:05;;;;;;;;;;;5.20;99.90;;;;;;7340108;19;110950;-91
2023/01/17 02:31:35;;;;;;;;;;;5.20;99.90;;;;;;7342507;19;108763;-90
2023/01/17 02:34:09;;;;;;;;;;;5.20;99.90;;;;;;7340466;19;109899;-91
2023/01/17 02:36:40;;;;;;;;;;;5.20;99.90;;;;;;7342026;19;108992;-91
2023/01/17 02:39:07;;;;;;;;;;;5.20;99.90;;;;;;7341912;19;108374;-91
2023/01/17 02:41:36;;;;;;;;;;;5.10;99.90;;;;;;7339497;19;109047;-91
2023/01/17 02:44:03;;;;;;;;;;;5.10;99.90;;;;;;7343267;19;111243;-92
2023/01/17 02:46:30;;;;;;;;;;;5.10;99.90;;;;;;7348239;19;109940;-91
2023/01/17 02:48:59;;;;;;;;;;;5.10;99.90;;;;;;7344787;19;109244;-91
2023/01/17 02:51:44;;;;;;;;;;;5.10;99.90;;;;;;7347895;19;109024;-92
2023/01/17 02:54:37;;;;;;;;;;;5.10;99.90;;;;;;7348694;19;109659;-92
2023/01/17 02:57:10;;;;;;;;;;;5.10;99.90;;;;;;7345321;19;111851;-92
2023/01/17 02:59:48;;;;;;;;;;;5.10;99.90;;;;;;7347492;19;108932;-91
2023/01/17 03:02:15;;;;;;;;;;;5.00;99.90;;;;;;7348195;19;109541;-93
2023/01/17 03:04:48;;;;;;;;;;;5.00;99.90;;;;;;7349681;19;110401;-92
2023/01/17 03:07:18;;;;;;;;;;;5.00;99.90;;;;;;7351028;19;108397;-91
2023/01/17 03:09:47;;;;;;;;;;;5.00;99.90;;;;;;7356386;19;110853;-92
2023/01/17 03:12:14;;;;;;;;;;;5.00;99.90;;;;;;7349041;19;108570;-92
2023/01/17 03:14:41;;;;;;;;;;;4.90;99.90;;;;;;7351137;19;111593;-93
2023/01/17 03:17:08;;;;;;;;;;;4.90;99.90;;;;;;7348032;19;112664;-92
2023/01/17 03:19:35;;;;;;;;;;;4.90;99.90;;;;;;7349031;19;110167;-93
2023/01/17 03:22:02;;;;;;;;;;;4.90;99.90;;;;;;7347345;19;109344;-92
2023/01/17 03:24:29;;;;;;;;;;;4.80;99.90;;;;;;7347595;19;108792;-92
2023/01/17 03:26:56;;;;;;;;;;;4.80;99.90;;;;;;7349987;19;108309;-92
2023/01/17 03:29:23;;;;;;;;;;;4.80;99.90;;;;;;7352430;19;109410;-92
2023/01/17 03:31:50;;;;;;;;;;;4.80;99.90;;;;;;7347773;19;112628;-93
2023/01/17 03:34:17;;;;;;;;;;;4.70;99.90;;;;;;7349226;19;109745;-92
2023/01/17 03:36:44;;;;;;;;;;;4.70;99.90;;;;;;7348870;19;113743;-92
2023/01/17 03:39:11;;;;;;;;;;;4.60;99.90;;;;;;7346366;19;109030;-93
2023/01/17 03:41:38;;;;;;;;;;;4.60;99.90;;;;;;7345926;19;109388;-93
2023/01/17 03:44:05;;;;;;;;;;;4.50;99.90;;;;;;7347956;19;111384;-93
2023/01/17 03:46:32;;;;;;;;;;;4.50;99.90;;;;;;7347011;19;108452;-92
2023/01/17 03:48:59;;;;;;;;;;;4.40;99.90;;;;;;7348882;19;109123;-92
2023/01/17 03:51:26;;;;;;;;;;;4.40;99.90;;;;;;7354668;19;108739;-92
2023/01/17 03:53:53;;;;;;;;;;;4.40;99.90;;;;;;7349051;19;111142;-93
2023/01/17 03:56:20;;;;;;;;;;;4.30;99.90;;;;;;7349904;19;110702;-93
2023/01/17 03:58:47;;;;;;;;;;;4.30;99.90;;;;;;7349854;19;108808;-92
2023/01/17 04:01:14;;;;;;;;;;;4.30;99.90;;;;;;7347566;19;109491;-93
2023/01/17 04:03:41;;;;;;;;;;;4.20;99.90;;;;;;7347120;19;109187;-93
2023/01/17 04:06:08;;;;;;;;;;;4.10;99.90;;;;;;7347241;19;108847;-93
2023/01/17 04:08:35;;;;;;;;;;;4.10;99.90;;;;;;7347074;19;110578;-93
2023/01/17 04:11:02;;;;;;;;;;;4.00;99.90;;;;;;7348796;19;110694;-93
2023/01/17 04:13:29;;;;;;;;;;;4.00;99.90;;;;;;7354174;19;108421;-93
2023/01/17 04:15:56;;;;;;;;;;;4.00;99.90;;;;;;7349932;19;110399;-93
2023/01/17 04:18:23;;;;;;;;;;;3.90;99.90;;;;;;7348710;19;108357;-92
2023/01/17 04:20:50;;;;;;;;;;;3.80;99.90;;;;;;7347439;19;112364;-92
2023/01/17 04:23:17;;;;;;;;;;;3.80;99.90;;;;;;7346642;19;109953;-93
2023/01/17 04:25:44;;;;;;;;;;;3.80;99.90;;;;;;7347675;19;108820;-93
2023/01/17 04:28:11;;;;;;;;;;;3.80;99.90;;;;;;7347373;19;109142;-92
2023/01/17 04:30:39;;;;;;;;;;;3.70;99.90;;;;;;7347224;19;109166;-92
2023/01/17 04:33:06;;;;;;;;;;;3.70;99.90;;;;;;7348040;19;108628;-93
2023/01/17 04:35:33;;;;;;;;;;;3.70;99.90;;;;;;7350513;19;111560;-93
2023/01/17 04:38:00;;;;;;;;;;;3.70;99.90;;;;;;7350213;19;108322;-93
2023/01/17 04:40:28;;;;;;;;;;;3.70;99.90;;;;;;7346182;19;108140;-93
2023/01/17 04:42:56;;;;;;;;;;;3.70;99.90;;;;;;7347160;19;114641;-93
2023/01/17 04:45:23;;;;;;;;;;;3.60;99.90;;;;;;7346165;19;108932;-93
2023/01/17 04:47:50;;;;;;;;;;;3.60;99.90;;;;;;7346807;19;108651;-93
2023/01/17 04:50:21;;;;;;;;;;;3.60;99.90;;;;;;7345842;19;129802;-92
2023/01/17 04:52:47;;;;;;;;;;;3.50;99.90;;;;;;7347198;19;108550;-94
2023/01/17 04:55:15;;;;;;;;;;;3.50;99.90;;;;;;7346225;19;109946;-95
2023/01/17 04:57:42;;;;;;;;;;;3.50;99.90;;;;;;7354396;19;110766;-94
2023/01/17 05:00:10;;;;;;;;;;;3.50;99.90;;;;;;7349898;19;112164;-94
2023/01/17 05:02:37;;;;;;;;;;;3.50;99.90;;;;;;7347087;19;108828;-94
2023/01/17 05:05:05;;;;;;;;;;;3.50;99.90;;;;;;7347325;19;108476;-94
2023/01/17 05:07:32;;;;;;;;;;;3.50;99.90;;;;;;7347379;19;109366;-94
2023/01/17 05:10:01;;;;;;;;;;;3.40;99.90;;;;;;7347927;19;110325;-94
2023/01/17 05:12:28;;;;;;;;;;;3.40;99.90;;;;;;7349505;19;108039;-96
2023/01/17 05:14:55;;;;;;;;;;;3.40;99.90;;;;;;7349693;19;111511;-96
2023/01/17 05:17:22;;;;;;;;;;;3.40;99.90;;;;;;7346982;19;111116;-96
2023/01/17 05:19:49;;;;;;;;;;;3.40;99.90;;;;;;7354991;19;108124;-96
2023/01/17 05:22:16;;;;;;;;;;;3.30;99.90;;;;;;7348649;19;109037;-96
2023/01/17 05:24:44;;;;;;;;;;;3.30;99.90;;;;;;7350243;19;108250;-96
2023/01/17 05:27:11;;;;;;;;;;;3.30;99.90;;;;;;7350930;19;108743;-96
2023/01/17 05:29:39;;;;;;;;;;;3.30;99.90;;;;;;7357869;19;108273;-96
2023/01/17 05:32:06;;;;;;;;;;;3.30;99.90;;;;;;7362898;19;107359;-96
2023/01/17 05:34:42;;;;;;;;;;;3.30;99.90;;;;;;7367435;19;107530;-96
2023/01/17 05:37:09;;;;;;;;;;;3.20;99.90;;;;;;7377096;19;111382;-96
2023/01/17 05:39:37;;;;;;;;;;;3.20;99.90;;;;;;7384835;19;107422;-96
2023/01/17 05:42:07;;;;;;;;;;;3.20;99.90;;;;;;7378031;19;108578;-96
2023/01/17 05:44:40;;;;;;;;;;;3.20;99.90;;;;;;7379660;19;107271;-96
2023/01/17 05:47:07;;;;;;;;;;;3.10;99.90;;;;;;7367531;19;108382;-94
2023/01/17 05:49:39;;;;;;;;;;;3.10;99.90;;;;;;7346552;19;109479;-94
2023/01/17 05:52:20;;;;;;;;;;;3.10;99.90;;;;;;7346225;19;108636;-94
2023/01/17 05:54:50;;;;;;;;;;;3.10;99.90;;;;;;7347708;19;109090;-94
2023/01/17 05:57:30;;;;;;;;;;;3.00;99.90;;;;;;7345138;19;109246;-94
2023/01/17 06:00:12;;;;;;;;;;;3.00;99.90;;;;;;7345625;19;108440;-94
2023/01/17 06:02:39;;;;;;;;;;;3.00;99.90;;;;;;7349144;19;108116;-93
2023/01/17 06:05:10;;;;;;;;;;;2.90;99.90;;;;;;7342931;19;108411;-94
2023/01/17 06:07:51;;;;;;;;;;;2.90;99.90;;;;;;7346172;19;108428;-93
2023/01/17 06:10:20;;;;;;;;;;;2.90;99.90;;;;;;7349027;19;109131;-93
2023/01/17 06:12:48;;;;;;;;;;;2.90;99.90;;;;;;7347849;19;108560;-93
2023/01/17 06:15:17;;;;;;;;;;;2.90;99.90;;;;;;7347274;19;108418;-94
2023/01/17 06:18:02;;;;;;;;;;;2.80;99.90;;;;;;7346898;19;109147;-95
2023/01/17 06:20:42;;;;;;;;;;;2.80;99.90;;;;;;7345197;19;108665;-94
2023/01/17 06:23:24;;;;;;;;;;;2.80;99.90;;;;;;7344870;19;108854;-94
2023/01/17 06:26:07;;;;;;;;;;;2.80;99.90;;;;;;7353053;19;109352;-94
2023/01/17 06:28:47;;;;;;;;;;;2.80;99.90;;;;;;7349031;19;108354;-94
2023/01/17 06:31:28;;;;;;;;;;;2.80;99.90;;;;;;7348663;19;108361;-95
2023/01/17 06:33:55;;;;;;;;;;;2.80;99.90;;;;;;7349710;19;108324;-94
2023/01/17 06:36:36;;;;;;;;;;;2.70;99.90;;;;;;7345798;19;108349;-94
2023/01/17 06:39:17;;;;;;;;;;;2.70;99.90;;;;;;7340987;19;108641;-94
2023/01/17 06:41:58;;;;;;;;;;;2.70;99.90;;;;;;7340216;19;108566;-93
2023/01/17 06:44:38;;;;;;;;;;;2.60;99.90;;;;;;7341218;19;109130;-95
2023/01/17 06:47:20;;;;;;;;;;;2.60;99.90;;;;;;7334207;19;109355;-93
2023/01/17 06:50:02;;;;;;;;;;;2.60;99.90;;;;;;7338850;19;108563;-94
2023/01/17 06:52:55;;;;;;;;;;;2.50;99.90;;;;;;7340618;19;108624;-94
2023/01/17 06:55:36;;;;;;;;;;;2.50;99.90;;;;;;7340798;19;109543;-94
2023/01/17 06:58:16;;;;;;;;;;;2.50;99.90;;;;;;7342161;19;108302;-94
2023/01/17 07:01:06;;;;;;;;;;;2.50;99.90;;;;;;7343809;19;108377;-94
2023/01/17 07:03:47;;;;;;;;;;;2.40;99.90;;;;;;7343800;19;108476;-95
2023/01/17 07:06:28;;;;;;;;;;;2.40;99.90;;;;;;7344228;19;108437;-94
2023/01/17 07:09:10;;;;;;;;;;;2.30;99.90;;;;;;7345699;19;109316;-95
2023/01/17 07:11:58;;;;;;;;;;;2.30;99.90;;;;;;7345517;19;108388;-95
2023/01/17 07:14:39;;;;;;;;;;;2.20;99.90;;;;;;7349586;19;108969;-94
2023/01/17 07:17:21;;;;;;;;;;;2.20;99.90;;;;;;7350995;19;108903;-94
2023/01/17 07:20:03;;;;;;;;;;;2.10;99.90;;;;;;7352351;19;108849;-94
2023/01/17 07:22:44;;;;;;;;;;;2.10;99.90;;;;;;7351032;19;110607;-95
2023/01/17 07:25:24;;;;;;;;;;;2.00;99.90;;;;;;7351353;19;108392;-94
2023/01/17 07:28:26;;;;;;;;;;;2.00;99.90;;;;;;7353038;19;108175;-94
2023/01/17 07:31:59;;;;;;;;;;;2.00;99.90;;;;;;7351477;19;109398;-95
2023/01/17 07:34:45;;;;;;;;;;;1.90;99.90;;;;;;7351597;19;108278;-94
2023/01/17 07:38:01;;;;;;;;;;;1.70;99.90;;;;;;7352031;19;108356;-96
2023/01/17 07:41:30;;;;;;;;;;;1.80;99.90;;;;;;7357300;19;110075;-94
2023/01/17 07:44:18;;;;;;;;;;;1.80;99.90;;;;;;7351847;19;108262;-95
2023/01/17 07:50:13;;;;;;;;;;;1.80;99.90;;;;;;7349955;19;108622;-94
2023/01/17 07:52:55;;;;;;;;;;;1.80;99.90;;;;;;7350181;19;108602;-94
2023/01/17 07:55:36;;;;;;;;;;;1.80;99.90;;;;;;7348927;19;108534;-94
2023/01/17 07:58:16;;;;;;;;;;;1.80;99.90;;;;;;7349072;19;108334;-94
2023/01/17 08:00:52;;;;;;;;;;;1.90;99.90;;;;;;7349922;19;108539;-94
2023/01/17 08:03:38;;;;;;;;;;;1.80;99.90;;;;;;7354194;19;109824;-94
2023/01/17 08:06:23;;;;;;;;;;;1.80;99.90;;;;;;7348631;19;108936;-94
2023/01/17 08:09:04;;;;;;;;;;;1.90;99.90;;;;;;7348554;19;108163;-95
2023/01/17 08:11:44;;;;;;;;;;;1.90;99.90;;;;;;7349283;19;108797;-94
2023/01/17 08:14:13;;;;;;;;;;;1.90;99.90;;;;;;7350025;19;108378;-94
2023/01/17 08:17:02;;;;;;;;;;;1.90;99.90;;;;;;7348452;19;109708;-94
2023/01/17 08:19:30;;;;;;;;;;;1.90;99.90;;;;;;7349734;19;108365;-95
2023/01/17 08:22:13;;;;;;;;;;;1.90;99.90;;;;;;7349379;19;108692;-95
2023/01/17 08:24:43;;;;;;;;;;;1.90;99.90;;;;;;7350435;19;109431;-96
2023/01/17 08:27:11;;;;;;;;;;;1.90;99.90;;;;;;7353787;19;108150;-95
2023/01/17 08:29:52;;;;;;;;;;;1.90;99.90;;;;;;7348867;19;108270;-95
2023/01/17 08:32:20;;;;;;;;;;;2.00;99.90;;;;;;7347686;19;108052;-95
2023/01/17 08:34:47;;;;;;;;;;;2.00;99.90;;;;;;7349834;19;108286;-95
2023/01/17 08:37:14;;;;;;;;;;;2.00;99.90;;;;;;7350085;19;108058;-95
2023/01/17 08:39:42;;;;;;;;;;;2.10;99.90;;;;;;7352841;19;108285;-95
2023/01/17 08:42:10;;;;;;;;;;;2.10;99.90;;;;;;7350366;19;108131;-95
2023/01/17 08:44:38;;;;;;;;;;;2.10;99.90;;;;;;7347006;19;108902;-94
2023/01/17 08:47:05;;;;;;;;;;;2.10;99.90;;;;;;7348559;19;109734;-96
2023/01/17 08:49:32;;;;;;;;;;;2.20;99.90;;;;;;7352087;19;108424;-94
2023/01/17 08:52:00;;;;;;;;;;;2.20;99.90;;;;;;7348557;19;108078;-96
2023/01/17 08:54:27;;;;;;;;;;;2.20;99.90;;;;;;7349500;19;108437;-96
2023/01/17 08:56:55;;;;;;;;;;;2.30;99.90;;;;;;7347775;19;108323;-96
2023/01/17 08:59:22;;;;;;;;;;;2.30;99.90;;;;;;7348502;19;108332;-95
2023/01/17 09:01:51;;;;;;;;;;;2.40;99.90;;;;;;7350426;19;108491;-94
2023/01/17 09:04:18;;;;;;;;;;;2.40;99.90;;;;;;7346185;19;111371;-94
2023/01/17 09:06:47;;;;;;;;;;;2.50;99.90;;;;;;7349090;19;108572;-96
2023/01/17 09:09:15;;;;;;;;;;;2.50;99.90;;;;;;7346613;19;109178;-93
2023/01/17 09:11:42;;;;;;;;;;;2.50;99.90;;;;;;7354738;19;108163;-93
2023/01/17 09:14:12;;;;;;;;;;;2.60;99.90;;;;;;7347994;19;108472;-94
2023/01/17 09:16:40;;;;;;;;;;;2.60;99.90;;;;;;7347734;19;108414;-96
2023/01/17 09:19:07;;;;;;;;;;;2.70;99.90;;;;;;7349328;19;107864;-95
2023/01/17 09:21:35;;;;;;;;;;;2.70;99.90;;;;;;7347976;19;108682;-94
2023/01/17 09:24:03;;;;;;;;;;;2.80;99.90;;;;;;7347265;19;110039;-94
2023/01/17 09:26:30;;;;;;;;;;;2.80;99.90;;;;;;7347842;19;108323;-94
2023/01/17 09:28:58;;;;;;;;;;;2.90;99.90;;;;;;7348673;19;108156;-95
2023/01/17 09:31:26;;;;;;;;;;;3.00;99.90;;;;;;7344042;19;109385;-95
2023/01/17 09:33:55;;;;;;;;;;;3.00;99.90;;;;;;7350025;19;109457;-94
2023/01/17 09:36:22;;;;;;;;;;;3.10;99.90;;;;;;7346822;19;108266;-96
2023/01/17 09:38:54;;;;;;;;;;;3.10;99.90;;;;;;7346464;19;109194;-96
2023/01/17 09:41:22;;;;;;;;;;;3.20;99.90;;;;;;7346130;19;108288;-93
2023/01/17 09:44:00;;;;;;;;;;;3.30;99.90;;;;;;7347961;19;109149;-94
2023/01/17 09:46:38;;;;;;;;;;;3.30;99.90;;;;;;7347796;19;108184;-94
2023/01/17 09:49:07;;;;;;;;;;;3.40;99.90;;;;;;7349010;19;109081;-94
2023/01/17 09:51:35;;;;;;;;;;;3.40;99.90;;;;;;7345540;19;108767;-94
2023/01/17 09:54:03;;;;;;;;;;;3.50;99.90;;;;;;7349222;19;108512;-95
2023/01/17 09:56:34;;;;;;;;;;;3.50;99.90;;;;;;7352176;19;107941;-94
2023/01/17 09:59:08;;;;;;;;;;;3.50;99.90;;;;;;7344030;19;108225;-94
2023/01/17 10:01:42;;;;;;;;;;;3.60;99.90;;;;;;7346654;19;108230;-96
2023/01/17 10:04:12;;;;;;;;;;;3.60;99.90;;;;;;7347868;19;109125;-96
2023/01/17 10:06:57;;;;;;;;;;;3.70;99.90;;;;;;7345742;19;107953;-95
2023/01/17 10:09:27;;;;;;;;;;;3.80;99.90;;;;;;7348185;19;108441;-96
2023/01/17 10:12:33;;;;;;;;;;;3.80;99.90;;;;;;7346563;19;109682;-94
2023/01/17 10:15:13;;;;;;;;;;;3.90;99.90;;;;;;7345441;19;108622;-95
2023/01/17 10:17:53;;;;;;;;;;;3.90;99.90;;;;;;7348785;19;111734;-94
2023/01/17 10:20:32;;;;;;;;;;;4.00;99.90;;;;;;7342906;19;109963;-96
2023/01/17 10:23:03;;;;;;;;;;;4.00;99.90;;;;;;7346943;19;108153;-95
2023/01/17 10:25:32;;;;;;;;;;;4.00;99.90;;;;;;7342562;19;108412;-95
2023/01/17 10:28:02;;;;;;;;;;;4.00;99.90;;;;;;7344177;19;108540;-95
2023/01/17 10:30:35;;;;;;;;;;;4.10;99.90;;;;;;7343378;19;108173;-96
2023/01/17 10:33:10;;;;;;;;;;;4.10;99.90;;;;;;7343285;19;108776;-94
2023/01/17 10:35:43;;;;;;;;;;;4.20;99.90;;;;;;7344566;19;108458;-95
2023/01/17 10:38:12;;;;;;;;;;;4.20;99.90;;;;;;7345218;19;108628;-94
2023/01/17 10:40:43;;;;;;;;;;;4.20;99.90;;;;;;7349207;19;108537;-94
2023/01/17 10:43:23;;;;;;;;;;;4.30;99.90;;;;;;7345354;19;108052;-95
2023/01/17 10:45:54;;;;;;;;;;;4.30;99.90;;;;;;7346145;19;109690;-95
2023/01/17 10:48:34;;;;;;;;;;;4.40;99.90;;;;;;7344578;19;108571;-94
2023/01/17 10:51:14;;;;;;;;;;;4.40;99.90;;;;;;7353036;19;108323;-95
2023/01/17 10:53:59;;;;;;;;;;;4.50;99.90;;;;;;7353997;19;109339;-95
2023/01/17 10:56:28;;;;;;;;;;;4.50;99.90;;;;;;7351689;19;108407;-96
2023/01/17 10:59:13;;;;;;;;;;;4.60;99.90;;;;;;7349741;19;109012;-94
2023/01/17 11:01:40;;;;;;;;;;;4.60;99.90;;;;;;7352686;19;107996;-95
2023/01/17 11:04:14;;;;;;;;;;;4.60;99.90;;;;;;7357175;19;108387;-95
2023/01/17 11:06:45;;;;;;;;;;;4.70;99.90;;;;;;7351681;19;108226;-94
2023/01/17 11:09:35;;;;;;;;;;;4.70;99.90;;;;;;7356021;19;108331;-94
2023/01/17 11:12:03;;;;;;;;;;;4.80;99.90;;;;;;7352077;19;108444;-94
2023/01/17 11:14:34;;;;;;;;;;;4.80;99.90;;;;;;7351003;19;108313;-94
2023/01/17 11:17:03;;;;;;;;;;;4.80;99.90;;;;;;7353573;19;108545;-95
2023/01/17 11:19:34;;;;;;;;;;;4.80;99.90;;;;;;7349801;19;108445;-95
2023/01/17 11:22:03;;;;;;;;;;;4.80;99.90;;;;;;7352081;19;109755;-96
2023/01/17 11:24:35;;;;;;;;;;;4.80;99.90;;;;;;7351388;19;108944;-95
2023/01/17 11:27:04;;;;;;;;;;;4.90;99.90;;;;;;7358607;19;108600;-94
2023/01/17 11:29:37;;;;;;;;;;;5.00;99.90;;;;;;7349286;19;108890;-94
2023/01/17 11:32:20;;;;;;;;;;;5.00;99.90;;;;;;7353840;19;108320;-95
2023/01/17 11:35:06;;;;;;;;;;;5.10;99.90;;;;;;7356525;19;109142;-95
2023/01/17 11:37:34;;;;;;;;;;;5.20;99.90;;;;;;7349659;19;108880;-95
2023/01/17 11:40:08;;;;;;;;;;;5.30;99.90;;;;;;7352883;19;108144;-95
2023/01/17 11:42:37;;;;;;;;;;;5.40;99.90;;;;;;7351841;19;108165;-96
2023/01/17 11:45:24;;;;;;;;;;;5.50;99.90;;;;;;7350533;19;107702;-95
2023/01/17 11:48:12;;;;;;;;;;;5.60;99.90;;;;;;7350440;19;108408;-95
2023/01/17 11:50:41;;;;;;;;;;;5.60;99.90;;;;;;7352749;19;108361;-95
2023/01/17 11:53:15;;;;;;;;;;;5.70;99.90;;;;;;7351123;19;108169;-95
2023/01/17 11:55:54;;;;;;;;;;;5.80;99.90;;;;;;7350623;19;108173;-96
2023/01/17 12:04:21;;;;;;;;;;;6.10;99.90;;;;;;7342225;19;109199;-90
2023/01/17 12:06:54;;;;;;;;;;;6.20;99.90;;;;;;7343860;19;108300;-91
2023/01/17 12:09:42;;;;;;;;;;;6.30;99.90;;;;;;7343666;19;111711;-91
2023/01/17 12:15:19;;;;;;;;;;;6.50;99.90;;;;;;7349100;19;108833;-91
2023/01/17 12:17:57;;;;;;;;;;;6.60;99.90;;;;;;7342877;19;109479;-91
2023/01/17 12:20:36;;;;;;;;;;;6.70;99.90;;;;;;7344218;19;108662;-91
2023/01/17 12:23:22;;;;;;;;;;;6.80;99.90;;;;;;7346511;19;109016;-91
2023/01/17 12:26:19;;;;;;;;;;;6.90;99.90;;;;;;7342683;19;109416;-91
2023/01/17 12:29:00;;;;;;;;;;;7.00;99.90;;;;;;7340383;19;108654;-90
2023/01/17 12:31:26;;;;;;;;;;;7.20;99.90;;;;;;7341088;19;110191;-91
2023/01/17 12:34:14;;;;;;;;;;;7.20;99.90;;;;;;7343831;19;110109;-90
2023/01/17 12:36:44;;;;;;;;;;;7.30;99.90;;;;;;7346426;19;109512;-90
2023/01/17 12:39:15;;;;;;;;;;;7.40;99.90;;;;;;7346053;19;110207;-89
2023/01/17 12:41:58;;;;;;;;;;;7.50;99.90;;;;;;7345559;19;108702;-91
2023/01/17 12:44:33;;;;;;;;;;;7.60;99.90;;;;;;7342535;19;112638;-88
2023/01/17 12:47:02;;;;;;;;;;;7.60;99.90;;;;;;7345645;19;110336;-92
2023/01/17 12:49:47;;;;;;;;;;;7.70;99.90;;;;;;7344824;19;108128;-91
2023/01/17 12:52:21;;;;;;;;;;;7.80;99.90;;;;;;7346166;19;108645;-91
2023/01/17 12:54:52;;;;;;;;;;;7.90;99.90;;;;;;7342654;19;109252;-90
2023/01/17 12:57:21;;;;;;;;;;;8.00;99.90;;;;;;7343509;19;108818;-91
2023/01/17 12:59:54;;;;;;;;;;;8.10;99.90;;;;;;7350299;19;109029;-90
2023/01/17 13:02:21;;;;;;;;;;;8.10;99.90;;;;;;7342041;19;108903;-90
2023/01/17 13:04:56;;;;;;;;;;;8.20;99.90;;;;;;7346589;19;111238;-91
2023/01/17 13:07:24;;;;;;;;;;;8.20;99.90;;;;;;7345845;19;110224;-91
2023/01/17 13:10:01;;;;;;;;;;;8.20;99.90;;;;;;7345980;19;109258;-90
2023/01/17 13:12:30;;;;;;;;;;;8.30;99.90;;;;;;7340291;19;108595;-91
2023/01/17 13:14:57;;;;;;;;;;;8.40;99.90;;;;;;7344014;19;109660;-90
2023/01/17 13:17:33;;;;;;;;;;;8.40;99.90;;;;;;7345034;19;109079;-91
2023/01/17 13:20:00;;;;;;;;;;;8.50;99.90;;;;;;7346304;19;110238;-92
2023/01/17 13:22:27;;;;;;;;;;;8.50;99.90;;;;;;7347326;19;111798;-90
2023/01/17 13:25:03;;;;;;;;;;;8.50;99.90;;;;;;7344319;19;109336;-91
2023/01/17 13:27:30;;;;;;;;;;;8.50;99.90;;;;;;7342118;19;110635;-91
2023/01/17 13:30:16;;;;;;;;;;;8.50;99.90;;;;;;7344084;19;108437;-91
2023/01/17 13:32:49;;;;;;;;;;;8.60;99.90;;;;;;7342767;19;109329;-91
2023/01/17 13:35:25;;;;;;;;;;;8.50;99.90;;;;;;7341772;19;112174;-89
2023/01/17 13:37:52;;;;;;;;;;;8.50;99.90;;;;;;7339221;19;108859;-87
2023/01/17 13:40:28;;;;;;;;;;;8.60;99.90;;;;;;7342382;19;108562;-88
2023/01/17 13:42:57;;;;;;;;;;;8.70;99.90;;;;;;7341560;19;109761;-89
2023/01/17 13:45:36;;;;;;;;;;;8.80;99.90;;;;;;7345256;19;108552;-89
2023/01/17 13:48:13;;;;;;;;;;;9.00;99.90;;;;;;7339877;19;109202;-89
2023/01/17 13:50:40;;;;;;;;;;;9.00;99.90;;;;;;7339453;19;108510;-89
2023/01/17 13:53:25;;;;;;;;;;;9.10;99.90;;;;;;7340787;19;108475;-89
2023/01/17 13:55:58;;;;;;;;;;;9.20;99.90;;;;;;7340215;19;112216;-88
2023/01/17 13:58:27;;;;;;;;;;;9.00;99.90;;;;;;7338438;19;110314;-88
2023/01/17 14:00:54;;;;;;;;;;;9.00;99.90;;;;;;7340003;19;109306;-88
2023/01/17 14:03:40;;;;;;;;;;;9.10;99.90;;;;;;7336238;19;109474;-89
2023/01/17 14:06:25;;;;;;;;;;;9.10;99.90;;;;;;7342357;19;108309;-88
2023/01/17 14:08:53;;;;;;;;;;;9.30;99.90;;;;;;7346170;19;109614;-90
2023/01/17 14:11:20;;;;;;;;;;;9.40;99.90;;;;;;7339169;19;108662;-89
2023/01/17 14:13:50;;;;;;;;;;;9.50;99.90;;;;;;7342795;19;109620;-88
2023/01/17 14:16:20;;;;;;;;;;;9.50;99.90;;;;;;7339890;19;109277;-90
2023/01/17 14:18:47;;;;;;;;;;;9.40;99.90;;;;;;7341143;19;108584;-91
2023/01/17 14:21:20;;;;;;;;;;;9.40;99.90;;;;;;7342171;19;108709;-88
2023/01/17 14:23:49;;;;;;;;;;;9.30;99.90;;;;;;7341326;19;110924;-90
2023/01/17 14:26:36;;;;;;;;;;;9.40;99.90;;;;;;7349569;19;108471;-90
2023/01/17 14:29:22;;;;;;;;;;;9.40;99.90;;;;;;7350492;19;108731;-90
2023/01/17 14:31:57;;;;;;;;;;;9.40;99.90;;;;;;7344390;19;108615;-89
2023/01/17 14:34:25;;;;;;;;;;;9.50;99.90;;;;;;7341066;19;108883;-90
2023/01/17 14:37:02;;;;;;;;;;;9.40;99.90;;;;;;7345381;19;109140;-89
2023/01/17 14:39:29;;;;;;;;;;;9.30;99.90;;;;;;7345755;19;109746;-89
2023/01/17 14:41:57;;;;;;;;;;;9.30;99.90;;;;;;7347437;19;111011;-89
2023/01/17 14:44:24;;;;;;;;;;;9.30;99.90;;;;;;7346156;19;109532;-90
2023/01/17 14:46:51;;;;;;;;;;;9.30;99.90;;;;;;7346327;19;110553;-89
2023/01/17 14:49:23;;;;;;;;;;;9.30;99.90;;;;;;7346955;19;109275;-89
2023/01/17 14:52:03;;;;;;;;;;;9.30;99.90;;;;;;7350540;19;112530;-89
2023/01/17 14:54:30;;;;;;;;;;;9.20;99.90;;;;;;7343603;19;108553;-89
2023/01/17 14:57:16;;;;;;;;;;;9.20;99.90;;;;;;7345746;19;109739;-89
2023/01/17 14:59:43;;;;;;;;;;;9.10;99.90;;;;;;7344803;19;109049;-89
2023/01/17 15:02:13;;;;;;;;;;;9.10;99.90;;;;;;7342429;19;111047;-90
2023/01/17 15:04:41;;;;;;;;;;;9.00;99.90;;;;;;7343563;19;109631;-90
2023/01/17 15:07:13;;;;;;;;;;;8.90;99.90;;;;;;7345766;19;108713;-89
2023/01/17 15:09:41;;;;;;;;;;;8.80;99.90;;;;;;7342585;19;110162;-90
2023/01/17 15:12:14;;;;;;;;;;;8.60;99.90;;;;;;7343918;19;111941;-89
2023/01/17 15:14:43;;;;;;;;;;;8.50;99.90;;;;;;7352316;19;108542;-89
2023/01/17 15:17:23;;;;;;;;;;;8.40;99.90;;;;;;7344829;19;110922;-90
2023/01/17 15:19:52;;;;;;;;;;;8.30;99.90;;;;;;7342618;19;108659;-90
2023/01/17 15:22:19;;;;;;;;;;;8.20;99.90;;;;;;7340785;19;110399;-90
2023/01/17 15:24:46;;;;;;;;;;;8.10;99.90;;;;;;7341881;19;109497;-90
2023/01/17 15:27:15;;;;;;;;;;;7.90;99.90;;;;;;7342934;19;108691;-89
2023/01/17 15:29:45;;;;;;;;;;;7.80;99.90;;;;;;7343681;19;109062;-89
2023/01/17 15:32:18;;;;;;;;;;;7.70;99.90;;;;;;7343346;19;108950;-89
2023/01/17 15:34:46;;;;;;;;;;;7.50;99.90;;;;;;7344271;19;108778;-89
2023/01/17 15:37:27;;;;;;;;;;;7.40;99.90;;;;;;7345460;19;108530;-90
2023/01/17 15:40:01;;;;;;;;;;;7.20;99.90;;;;;;7341817;19;108664;-88
2023/01/17 15:42:30;;;;;;;;;;;7.10;99.90;;;;;;7342842;19;110166;-89
2023/01/17 15:45:00;;;;;;;;;;;6.90;99.90;;;;;;7340461;19;109498;-89
2023/01/17 15:47:34;;;;;;;;;;;6.80;99.90;;;;;;7341412;19;108801;-89
2023/01/17 15:50:23;;;;;;;;;;;6.70;99.90;;;;;;7338979;19;109363;-90
2023/01/17 15:52:51;;;;;;;;;;;6.50;99.90;;;;;;7341688;19;109827;-90
2023/01/17 15:55:22;;;;;;;;;;;6.40;99.90;;;;;;7341682;19;109907;-90
2023/01/17 15:57:49;;;;;;;;;;;6.20;99.90;;;;;;7344356;19;109389;-89
2023/01/17 16:00:20;;;;;;;;;;;6.10;99.90;;;;;;7347372;19;110594;-89
2023/01/17 16:02:53;;;;;;;;;;;5.90;99.90;;;;;;7340786;19;109478;-89
2023/01/17 16:05:21;;;;;;;;;;;5.80;99.90;;;;;;7340404;19;112248;-89
2023/01/17 16:07:48;;;;;;;;;;;5.70;99.90;;;;;;7340699;19;110186;-89
2023/01/17 16:10:17;;;;;;;;;;;5.50;99.90;;;;;;7342089;19;109555;-89
2023/01/17 16:12:48;;;;;;;;;;;5.40;99.90;;;;;;7340331;19;109532;-89
2023/01/17 16:15:16;;;;;;;;;;;5.20;99.90;;;;;;7342998;19;109496;-89
2023/01/17 16:17:46;;;;;;;;;;;5.10;99.90;;;;;;7340953;19;109009;-89
2023/01/17 16:20:19;;;;;;;;;;;5.10;99.90;;;;;;7342085;19;110366;-89